sensor_id;sensor_type;location;lat;lon;timestamp;P1;durP1;ratioP1;P2;durP2;ratioP2
20904;SDS011;10612;50.692;7.188;2023-03-01T00:09:37;0.30;;;0.30;;
20904;SDS011;10612;50.692;7.188;2023-03-01T00:19:39;0.40;;;0.40;;
20904;SDS011;10612;50.692;7.188;2023-03-01T00:29:40;0.30;;;0.30;;
20904;SDS011;10612;50.692;7.188;2023-03-01T00:39:42;0.40;;;0.40;;
20904;SDS011;10612;50.692;7.188;2023-03-01T00:49:43;0.30;;;0.30;;
20904;SDS011;10612;50.692;7.188;2023-03-01T00:59:45;0.30;;;0.30;;
20904;SDS011;10612;50.692;7.188;2023-03-01T01:09:46;0.30;;;0.30;;
20904;SDS011;10612;50.692;7.188;2023-03-01T01:19:48;0.30;;;0.30;;
20904;SDS011;10612;50.692;7.188;2023-03-01T01:29:49;0.30;;;0.30;;
20904;SDS011;10612;50.692;7.188;2023-03-01T01:39:50;0.33;;;0.33;;
20904;SDS011;10612;50.692;7.188;2023-03-01T01:49:54;0.40;;;0.40;;
20904;SDS011;10612;50.692;7.188;2023-03-01T01:59:58;0.30;;;0.30;;
20904;SDS011;10612;50.692;7.188;2023-03-01T02:10:00;0.40;;;0.40;;
20904;SDS011;10612;50.692;7.188;2023-03-01T02:20:06;0.40;;;0.40;;
20904;SDS011;10612;50.692;7.188;2023-03-01T02:30:13;0.30;;;0.30;;
20904;SDS011;10612;50.692;7.188;2023-03-01T02:40:16;0.30;;;0.30;;
20904;SDS011;10612;50.692;7.188;2023-03-01T02:50:39;0.30;;;0.30;;
20904;SDS011;10612;50.692;7.188;2023-03-01T03:00:45;0.33;;;0.33;;
20904;SDS011;10612;50.692;7.188;2023-03-01T03:10:49;0.40;;;0.40;;
20904;SDS011;10612;50.692;7.188;2023-03-01T03:20:52;0.30;;;0.30;;
20904;SDS011;10612;50.692;7.188;2023-03-01T03:30:54;0.30;;;0.30;;
20904;SDS011;10612;50.692;7.188;2023-03-01T03:41:02;0.40;;;0.40;;
20904;SDS011;10612;50.692;7.188;2023-03-01T03:51:04;0.40;;;0.40;;
20904;SDS011;10612;50.692;7.188;2023-03-01T04:01:09;0.40;;;0.40;;
20904;SDS011;10612;50.692;7.188;2023-03-01T04:11:10;0.40;;;0.40;;
20904;SDS011;10612;50.692;7.188;2023-03-01T04:21:27;0.40;;;0.40;;
20904;SDS011;10612;50.692;7.188;2023-03-01T04:31:28;0.30;;;0.30;;
20904;SDS011;10612;50.692;7.188;2023-03-01T04:41:30;0.40;;;0.40;;
20904;SDS011;10612;50.692;7.188;2023-03-01T04:51:31;0.30;;;0.30;;
20904;SDS011;10612;50.692;7.188;2023-03-01T05:01:33;0.33;;;0.33;;
20904;SDS011;10612;50.692;7.188;2023-03-01T05:11:36;0.30;;;0.30;;
20904;SDS011;10612;50.692;7.188;2023-03-01T05:21:38;0.30;;;0.30;;
20904;SDS011;10612;50.692;7.188;2023-03-01T05:32:01;0.40;;;0.40;;
20904;SDS011;10612;50.692;7.188;2023-03-01T05:42:03;0.40;;;0.40;;
20904;SDS011;10612;50.692;7.188;2023-03-01T05:52:04;0.40;;;0.40;;
20904;SDS011;10612;50.692;7.188;2023-03-01T06:02:06;0.40;;;0.40;;
20904;SDS011;10612;50.692;7.188;2023-03-01T06:12:07;0.30;;;0.30;;
20904;SDS011;10612;50.692;7.188;2023-03-01T06:22:08;0.30;;;0.30;;
20904;SDS011;10612;50.692;7.188;2023-03-01T06:32:10;0.40;;;0.40;;
20904;SDS011;10612;50.692;7.188;2023-03-01T06:42:11;0.40;;;0.40;;
20904;SDS011;10612;50.692;7.188;2023-03-01T06:52:12;0.40;;;0.40;;
20904;SDS011;10612;50.692;7.188;2023-03-01T07:02:14;0.30;;;0.30;;
20904;SDS011;10612;50.692;7.188;2023-03-01T07:12:16;0.37;;;0.37;;
20904;SDS011;10612;50.692;7.188;2023-03-01T07:22:17;0.40;;;0.40;;
20904;SDS011;10612;50.692;7.188;2023-03-01T07:32:18;0.30;;;0.30;;
20904;SDS011;10612;50.692;7.188;2023-03-01T07:42:20;0.40;;;0.40;;
20904;SDS011;10612;50.692;7.188;2023-03-01T07:52:22;0.40;;;0.40;;
20904;SDS011;10612;50.692;7.188;2023-03-01T08:02:23;0.40;;;0.40;;
20904;SDS011;10612;50.692;7.188;2023-03-01T08:12:24;0.40;;;0.40;;
20904;SDS011;10612;50.692;7.188;2023-03-01T08:22:26;0.40;;;0.40;;
20904;SDS011;10612;50.692;7.188;2023-03-01T08:32:27;0.40;;;0.40;;
20904;SDS011;10612;50.692;7.188;2023-03-01T08:42:28;0.30;;;0.30;;
20904;SDS011;10612;50.692;7.188;2023-03-01T08:52:30;0.30;;;0.30;;
20904;SDS011;10612;50.692;7.188;2023-03-01T09:12:34;0.32;;;0.32;;
20904;SDS011;10612;50.692;7.188;2023-03-01T09:22:35;0.30;;;0.30;;
20904;SDS011;10612;50.692;7.188;2023-03-01T09:32:37;0.30;;;0.30;;
20904;SDS011;10612;50.692;7.188;2023-03-01T09:42:44;0.20;;;0.20;;
20904;SDS011;10612;50.692;7.188;2023-03-01T09:53:02;0.40;;;0.40;;
20904;SDS011;10612;50.692;7.188;2023-03-01T10:13:19;0.20;;;0.20;;
20904;SDS011;10612;50.692;7.188;2023-03-01T10:23:23;0.10;;;0.10;;
20904;SDS011;10612;50.692;7.188;2023-03-01T10:33:32;0.75;;;0.35;;
20904;SDS011;10612;50.692;7.188;2023-03-01T10:43:44;0.10;;;0.10;;
20904;SDS011;10612;50.692;7.188;2023-03-01T10:53:49;0.10;;;0.10;;
20904;SDS011;10612;50.692;7.188;2023-03-01T11:04:13;0.20;;;0.20;;
20904;SDS011;10612;50.692;7.188;2023-03-01T11:34:57;0.20;;;0.20;;
20904;SDS011;10612;50.692;7.188;2023-03-01T11:45:03;0.10;;;0.10;;
20904;SDS011;10612;50.692;7.188;2023-03-01T11:55:25;0.13;;;0.13;;
20904;SDS011;10612;50.692;7.188;2023-03-01T12:05:44;0.10;;;0.10;;
20904;SDS011;10612;50.692;7.188;2023-03-01T12:15:55;0.10;;;0.10;;
20904;SDS011;10612;50.692;7.188;2023-03-01T12:56:36;0.20;;;0.20;;
20904;SDS011;10612;50.692;7.188;2023-03-01T13:06:41;0.25;;;0.25;;
20904;SDS011;10612;50.692;7.188;2023-03-01T13:16:46;0.28;;;0.28;;
20904;SDS011;10612;50.692;7.188;2023-03-01T13:37:13;0.10;;;0.10;;
20904;SDS011;10612;50.692;7.188;2023-03-01T13:47:20;0.10;;;0.10;;
20904;SDS011;10612;50.692;7.188;2023-03-01T13:57:24;0.10;;;0.10;;
20904;SDS011;10612;50.692;7.188;2023-03-01T14:07:27;0.10;;;0.10;;
20904;SDS011;10612;50.692;7.188;2023-03-01T14:17:38;0.10;;;0.10;;
20904;SDS011;10612;50.692;7.188;2023-03-01T14:27:42;0.10;;;0.10;;
20904;SDS011;10612;50.692;7.188;2023-03-01T14:37:44;0.10;;;0.10;;
20904;SDS011;10612;50.692;7.188;2023-03-01T14:47:45;0.10;;;0.10;;
20904;SDS011;10612;50.692;7.188;2023-03-01T14:57:47;0.10;;;0.10;;
20904;SDS011;10612;50.692;7.188;2023-03-01T15:07:49;0.10;;;0.10;;
20904;SDS011;10612;50.692;7.188;2023-03-01T15:17:53;0.10;;;0.10;;
20904;SDS011;10612;50.692;7.188;2023-03-01T15:27:57;0.10;;;0.10;;
20904;SDS011;10612;50.692;7.188;2023-03-01T15:37:59;0.10;;;0.10;;
20904;SDS011;10612;50.692;7.188;2023-03-01T15:48:02;0.25;;;0.25;;
20904;SDS011;10612;50.692;7.188;2023-03-01T15:58:15;0.10;;;0.10;;
20904;SDS011;10612;50.692;7.188;2023-03-01T16:08:18;0.10;;;0.10;;
20904;SDS011;10612;50.692;7.188;2023-03-01T16:18:19;0.10;;;0.10;;
20904;SDS011;10612;50.692;7.188;2023-03-01T16:28:21;0.10;;;0.10;;
20904;SDS011;10612;50.692;7.188;2023-03-01T16:38:22;0.10;;;0.10;;
20904;SDS011;10612;50.692;7.188;2023-03-01T16:48:24;0.10;;;0.10;;
20904;SDS011;10612;50.692;7.188;2023-03-01T16:58:25;0.10;;;0.10;;
20904;SDS011;10612;50.692;7.188;2023-03-01T17:08:26;0.10;;;0.10;;
20904;SDS011;10612;50.692;7.188;2023-03-01T17:18:28;0.10;;;0.10;;
20904;SDS011;10612;50.692;7.188;2023-03-01T17:28:30;0.10;;;0.10;;
20904;SDS011;10612;50.692;7.188;2023-03-01T17:38:32;0.10;;;0.10;;
20904;SDS011;10612;50.692;7.188;2023-03-01T17:48:34;1.50;;;0.70;;
20904;SDS011;10612;50.692;7.188;2023-03-01T17:58:35;0.10;;;0.10;;
20904;SDS011;10612;50.692;7.188;2023-03-01T18:08:37;0.17;;;0.17;;
20904;SDS011;10612;50.692;7.188;2023-03-01T18:18:39;0.10;;;0.10;;
20904;SDS011;10612;50.692;7.188;2023-03-01T18:28:41;0.10;;;0.10;;
20904;SDS011;10612;50.692;7.188;2023-03-01T18:38:42;0.10;;;0.10;;
20904;SDS011;10612;50.692;7.188;2023-03-01T18:48:44;0.15;;;0.15;;
20904;SDS011;10612;50.692;7.188;2023-03-01T18:58:46;0.20;;;0.20;;
20904;SDS011;10612;50.692;7.188;2023-03-01T19:08:47;0.20;;;0.20;;
20904;SDS011;10612;50.692;7.188;2023-03-01T19:18:49;0.20;;;0.20;;
20904;SDS011;10612;50.692;7.188;2023-03-01T19:28:51;0.20;;;0.20;;
20904;SDS011;10612;50.692;7.188;2023-03-01T19:38:53;0.32;;;0.32;;
20904;SDS011;10612;50.692;7.188;2023-03-01T19:48:55;0.30;;;0.30;;
20904;SDS011;10612;50.692;7.188;2023-03-01T19:58:56;0.20;;;0.20;;
20904;SDS011;10612;50.692;7.188;2023-03-01T20:09:01;0.35;;;0.35;;
20904;SDS011;10612;50.692;7.188;2023-03-01T20:19:20;0.30;;;0.30;;
20904;SDS011;10612;50.692;7.188;2023-03-01T20:29:22;0.30;;;0.30;;
20904;SDS011;10612;50.692;7.188;2023-03-01T20:39:23;0.30;;;0.30;;
20904;SDS011;10612;50.692;7.188;2023-03-01T20:49:25;0.30;;;0.30;;
20904;SDS011;10612;50.692;7.188;2023-03-01T20:59:27;0.20;;;0.20;;
20904;SDS011;10612;50.692;7.188;2023-03-01T21:09:28;0.20;;;0.20;;
20904;SDS011;10612;50.692;7.188;2023-03-01T21:19:29;0.20;;;0.20;;
20904;SDS011;10612;50.692;7.188;2023-03-01T21:29:31;0.30;;;0.30;;
20904;SDS011;10612;50.692;7.188;2023-03-01T21:39:33;0.20;;;0.20;;
20904;SDS011;10612;50.692;7.188;2023-03-01T21:49:36;0.30;;;0.30;;
20904;SDS011;10612;50.692;7.188;2023-03-01T22:09:39;0.30;;;0.30;;
20904;SDS011;10612;50.692;7.188;2023-03-01T22:19:40;0.30;;;0.30;;
20904;SDS011;10612;50.692;7.188;2023-03-01T22:29:42;0.30;;;0.30;;
20904;SDS011;10612;50.692;7.188;2023-03-01T22:39:43;0.30;;;0.30;;
20904;SDS011;10612;50.692;7.188;2023-03-01T22:49:44;0.30;;;0.30;;
20904;SDS011;10612;50.692;7.188;2023-03-01T22:59:46;0.30;;;0.30;;
20904;SDS011;10612;50.692;7.188;2023-03-01T23:09:47;0.30;;;0.30;;
20904;SDS011;10612;50.692;7.188;2023-03-01T23:19:51;0.30;;;0.30;;
20904;SDS011;10612;50.692;7.188;2023-03-01T23:29:52;0.30;;;0.30;;
20904;SDS011;10612;50.692;7.188;2023-03-01T23:39:54;0.30;;;0.30;;
20904;SDS011;10612;50.692;7.188;2023-03-01T23:49:55;0.30;;;0.30;;
20904;SDS011;10612;50.692;7.188;2023-03-01T23:59:57;0.30;;;0.30;;
